sensor_id;sensor_type;location;lat;lon;timestamp;pressure;altitude;pressure_sealevel;temperature;humidity
21395;BME280;10858;42.714;23.180;2023-03-12T00:00:42;93595.41;;;3.34;65.11
21395;BME280;10858;42.714;23.180;2023-03-12T00:03:09;93590.84;;;3.25;64.27
21395;BME280;10858;42.714;23.180;2023-03-12T00:05:39;93604.22;;;3.33;64.54
21395;BME280;10858;42.714;23.180;2023-03-12T00:08:07;93602.88;;;3.52;64.56
21395;BME280;10858;42.714;23.180;2023-03-12T00:10:34;93605.47;;;3.40;64.90
21395;BME280;10858;42.714;23.180;2023-03-12T00:13:18;93607.41;;;3.26;65.36
21395;BME280;10858;42.714;23.180;2023-03-12T00:15:48;93603.50;;;3.31;65.29
21395;BME280;10858;42.714;23.180;2023-03-12T00:18:15;93606.72;;;3.11;65.48
21395;BME280;10858;42.714;23.180;2023-03-12T00:20:41;93605.25;;;3.07;65.42
21395;BME280;10858;42.714;23.180;2023-03-12T00:23:08;93603.59;;;3.06;65.49
21395;BME280;10858;42.714;23.180;2023-03-12T00:25:34;93608.13;;;3.04;65.15
21395;BME280;10858;42.714;23.180;2023-03-12T00:28:01;93614.28;;;3.03;64.72
21395;BME280;10858;42.714;23.180;2023-03-12T00:30:27;93629.69;;;3.31;65.15
21395;BME280;10858;42.714;23.180;2023-03-12T00:32:54;93626.31;;;3.18;65.25
21395;BME280;10858;42.714;23.180;2023-03-12T00:35:20;93639.59;;;3.15;64.63
21395;BME280;10858;42.714;23.180;2023-03-12T00:37:47;93636.78;;;3.18;65.09
21395;BME280;10858;42.714;23.180;2023-03-12T00:40:13;93636.50;;;3.10;64.98
21395;BME280;10858;42.714;23.180;2023-03-12T00:42:39;93635.78;;;3.08;64.56
21395;BME280;10858;42.714;23.180;2023-03-12T00:45:06;93642.47;;;3.12;64.98
21395;BME280;10858;42.714;23.180;2023-03-12T00:47:33;93646.88;;;2.99;65.94
21395;BME280;10858;42.714;23.180;2023-03-12T00:49:59;93640.84;;;2.86;65.95
21395;BME280;10858;42.714;23.180;2023-03-12T00:52:25;93638.66;;;2.80;66.28
21395;BME280;10858;42.714;23.180;2023-03-12T00:54:52;93635.56;;;2.99;65.67
21395;BME280;10858;42.714;23.180;2023-03-12T00:57:18;93634.78;;;2.73;66.68
21395;BME280;10858;42.714;23.180;2023-03-12T00:59:44;93642.00;;;2.82;66.72
21395;BME280;10858;42.714;23.180;2023-03-12T01:02:10;93635.84;;;2.71;66.54
21395;BME280;10858;42.714;23.180;2023-03-12T01:04:37;93627.78;;;2.61;66.64
21395;BME280;10858;42.714;23.180;2023-03-12T01:07:03;93628.41;;;2.77;67.18
21395;BME280;10858;42.714;23.180;2023-03-12T01:09:29;93618.34;;;2.71;66.42
21395;BME280;10858;42.714;23.180;2023-03-12T01:11:56;93621.72;;;2.60;66.82
21395;BME280;10858;42.714;23.180;2023-03-12T01:14:22;93631.44;;;2.58;66.60
21395;BME280;10858;42.714;23.180;2023-03-12T01:16:49;93634.00;;;2.60;67.23
21395;BME280;10858;42.714;23.180;2023-03-12T01:19:15;93631.91;;;2.52;66.94
21395;BME280;10858;42.714;23.180;2023-03-12T01:21:41;93623.09;;;2.53;66.85
21395;BME280;10858;42.714;23.180;2023-03-12T01:24:08;93636.25;;;2.65;66.79
21395;BME280;10858;42.714;23.180;2023-03-12T01:26:34;93637.41;;;2.73;66.21
21395;BME280;10858;42.714;23.180;2023-03-12T01:29:00;93635.44;;;2.64;66.97
21395;BME280;10858;42.714;23.180;2023-03-12T01:31:26;93626.03;;;2.49;67.04
21395;BME280;10858;42.714;23.180;2023-03-12T01:33:56;93633.25;;;2.58;66.80
21395;BME280;10858;42.714;23.180;2023-03-12T01:36:40;93630.00;;;2.67;66.89
21395;BME280;10858;42.714;23.180;2023-03-12T01:39:06;93625.78;;;2.77;66.71
21395;BME280;10858;42.714;23.180;2023-03-12T01:41:33;93611.03;;;2.64;66.53
21395;BME280;10858;42.714;23.180;2023-03-12T01:44:00;93605.19;;;2.60;66.88
21395;BME280;10858;42.714;23.180;2023-03-12T01:49:12;93603.66;;;2.81;65.95
21395;BME280;10858;42.714;23.180;2023-03-12T01:52:04;93607.53;;;2.88;65.83
21395;BME280;10858;42.714;23.180;2023-03-12T01:54:57;93605.13;;;2.85;65.38
21395;BME280;10858;42.714;23.180;2023-03-12T01:59:59;93614.16;;;2.69;66.58
21395;BME280;10858;42.714;23.180;2023-03-12T02:02:26;93613.34;;;2.55;67.68
21395;BME280;10858;42.714;23.180;2023-03-12T02:08:14;93612.63;;;2.53;68.91
21395;BME280;10858;42.714;23.180;2023-03-12T02:10:41;93614.94;;;2.45;68.70
21395;BME280;10858;42.714;23.180;2023-03-12T02:13:07;93623.34;;;2.38;69.28
21395;BME280;10858;42.714;23.180;2023-03-12T02:15:35;93625.94;;;2.50;67.94
21395;BME280;10858;42.714;23.180;2023-03-12T02:18:03;93617.88;;;2.41;68.78
21395;BME280;10858;42.714;23.180;2023-03-12T02:20:51;93630.66;;;2.33;68.99
21395;BME280;10858;42.714;23.180;2023-03-12T02:23:30;93630.13;;;2.28;70.03
21395;BME280;10858;42.714;23.180;2023-03-12T02:25:57;93636.09;;;2.30;68.85
21395;BME280;10858;42.714;23.180;2023-03-12T02:28:27;93641.09;;;2.33;68.39
21395;BME280;10858;42.714;23.180;2023-03-12T02:31:01;93638.41;;;2.22;69.72
21395;BME280;10858;42.714;23.180;2023-03-12T02:33:28;93638.78;;;1.91;71.63
21395;BME280;10858;42.714;23.180;2023-03-12T02:35:55;93644.84;;;1.91;71.43
21395;BME280;10858;42.714;23.180;2023-03-12T02:38:41;93644.00;;;1.91;71.31
21395;BME280;10858;42.714;23.180;2023-03-12T02:43:38;93650.09;;;1.91;72.17
21395;BME280;10858;42.714;23.180;2023-03-12T02:46:05;93648.22;;;1.93;71.11
21395;BME280;10858;42.714;23.180;2023-03-12T02:48:31;93656.34;;;1.89;71.28
21395;BME280;10858;42.714;23.180;2023-03-12T02:50:58;93648.84;;;1.84;71.71
21395;BME280;10858;42.714;23.180;2023-03-12T02:53:24;93661.88;;;1.71;72.89
21395;BME280;10858;42.714;23.180;2023-03-12T02:55:51;93666.16;;;1.72;72.66
21395;BME280;10858;42.714;23.180;2023-03-12T02:58:17;93663.66;;;1.71;72.55
21395;BME280;10858;42.714;23.180;2023-03-12T03:00:43;93664.38;;;1.73;72.76
21395;BME280;10858;42.714;23.180;2023-03-12T03:03:09;93669.09;;;1.68;72.88
21395;BME280;10858;42.714;23.180;2023-03-12T03:05:36;93666.16;;;1.72;72.81
21395;BME280;10858;42.714;23.180;2023-03-12T03:08:02;93672.44;;;1.70;72.61
21395;BME280;10858;42.714;23.180;2023-03-12T03:10:29;93669.72;;;1.71;72.68
21395;BME280;10858;42.714;23.180;2023-03-12T03:12:55;93668.63;;;1.61;73.72
21395;BME280;10858;42.714;23.180;2023-03-12T03:15:22;93665.28;;;1.59;72.86
21395;BME280;10858;42.714;23.180;2023-03-12T03:17:49;93674.78;;;1.60;72.98
21395;BME280;10858;42.714;23.180;2023-03-12T03:20:15;93676.41;;;1.76;72.48
21395;BME280;10858;42.714;23.180;2023-03-12T03:22:42;93677.22;;;1.63;73.93
21395;BME280;10858;42.714;23.180;2023-03-12T03:25:09;93669.44;;;1.49;73.66
21395;BME280;10858;42.714;23.180;2023-03-12T03:27:35;93671.50;;;1.44;73.95
21395;BME280;10858;42.714;23.180;2023-03-12T03:30:01;93680.34;;;1.56;72.61
21395;BME280;10858;42.714;23.180;2023-03-12T03:32:28;93684.09;;;1.52;72.62
21395;BME280;10858;42.714;23.180;2023-03-12T03:34:54;93681.72;;;1.61;72.69
21395;BME280;10858;42.714;23.180;2023-03-12T03:37:21;93688.06;;;1.57;72.65
21395;BME280;10858;42.714;23.180;2023-03-12T03:39:47;93686.38;;;1.56;72.24
21395;BME280;10858;42.714;23.180;2023-03-12T03:42:13;93688.59;;;1.62;71.29
21395;BME280;10858;42.714;23.180;2023-03-12T03:44:39;93702.75;;;1.72;70.60
21395;BME280;10858;42.714;23.180;2023-03-12T03:47:06;93710.78;;;1.69;70.55
21395;BME280;10858;42.714;23.180;2023-03-12T03:49:32;93713.94;;;1.74;71.01
21395;BME280;10858;42.714;23.180;2023-03-12T03:51:58;93727.00;;;1.74;70.69
21395;BME280;10858;42.714;23.180;2023-03-12T03:54:25;93718.97;;;1.78;70.36
21395;BME280;10858;42.714;23.180;2023-03-12T03:56:51;93713.81;;;1.63;70.25
21395;BME280;10858;42.714;23.180;2023-03-12T03:59:17;93723.31;;;1.64;69.36
21395;BME280;10858;42.714;23.180;2023-03-12T04:01:44;93718.13;;;1.77;68.70
21395;BME280;10858;42.714;23.180;2023-03-12T04:04:10;93734.78;;;1.89;67.77
21395;BME280;10858;42.714;23.180;2023-03-12T04:06:37;93734.31;;;1.69;68.96
21395;BME280;10858;42.714;23.180;2023-03-12T04:09:03;93740.34;;;1.57;67.18
21395;BME280;10858;42.714;23.180;2023-03-12T04:11:30;93741.78;;;1.76;66.99
21395;BME280;10858;42.714;23.180;2023-03-12T04:13:57;93750.19;;;1.66;66.12
21395;BME280;10858;42.714;23.180;2023-03-12T04:16:23;93754.91;;;1.88;65.71
21395;BME280;10858;42.714;23.180;2023-03-12T04:18:50;93754.97;;;1.87;65.73
21395;BME280;10858;42.714;23.180;2023-03-12T04:21:16;93760.59;;;1.81;65.40
21395;BME280;10858;42.714;23.180;2023-03-12T04:23:42;93769.78;;;1.73;65.33
21395;BME280;10858;42.714;23.180;2023-03-12T04:26:09;93771.38;;;1.76;65.57
21395;BME280;10858;42.714;23.180;2023-03-12T04:28:36;93775.22;;;1.56;67.03
21395;BME280;10858;42.714;23.180;2023-03-12T04:31:04;93780.81;;;1.64;65.61
21395;BME280;10858;42.714;23.180;2023-03-12T04:33:34;93779.25;;;1.62;65.31
21395;BME280;10858;42.714;23.180;2023-03-12T04:36:01;93776.19;;;1.55;64.76
21395;BME280;10858;42.714;23.180;2023-03-12T04:38:28;93772.25;;;1.48;65.32
21395;BME280;10858;42.714;23.180;2023-03-12T04:41:05;93774.13;;;1.46;65.24
21395;BME280;10858;42.714;23.180;2023-03-12T04:43:32;93770.59;;;1.47;65.34
21395;BME280;10858;42.714;23.180;2023-03-12T04:45:59;93773.00;;;1.50;65.39
21395;BME280;10858;42.714;23.180;2023-03-12T04:48:26;93775.00;;;1.33;65.30
21395;BME280;10858;42.714;23.180;2023-03-12T04:50:53;93774.00;;;1.35;65.76
21395;BME280;10858;42.714;23.180;2023-03-12T04:53:19;93780.97;;;1.35;65.94
21395;BME280;10858;42.714;23.180;2023-03-12T04:55:46;93785.34;;;1.34;65.92
21395;BME280;10858;42.714;23.180;2023-03-12T04:58:12;93778.09;;;1.39;65.91
21395;BME280;10858;42.714;23.180;2023-03-12T05:00:39;93787.50;;;1.42;65.96
21395;BME280;10858;42.714;23.180;2023-03-12T05:03:06;93793.56;;;1.42;65.88
21395;BME280;10858;42.714;23.180;2023-03-12T05:05:33;93790.13;;;1.42;65.53
21395;BME280;10858;42.714;23.180;2023-03-12T05:08:01;93795.25;;;1.43;66.14
21395;BME280;10858;42.714;23.180;2023-03-12T05:10:28;93799.44;;;1.46;65.99
21395;BME280;10858;42.714;23.180;2023-03-12T05:12:54;93797.28;;;1.52;65.89
21395;BME280;10858;42.714;23.180;2023-03-12T05:15:20;93802.41;;;1.54;65.69
21395;BME280;10858;42.714;23.180;2023-03-12T05:17:47;93809.03;;;1.59;65.78
21395;BME280;10858;42.714;23.180;2023-03-12T05:20:13;93817.59;;;1.76;65.83
21395;BME280;10858;42.714;23.180;2023-03-12T05:22:40;93817.75;;;1.72;65.98
21395;BME280;10858;42.714;23.180;2023-03-12T05:25:06;93825.94;;;1.81;66.17
21395;BME280;10858;42.714;23.180;2023-03-12T05:27:34;93818.63;;;2.39;64.77
21395;BME280;10858;42.714;23.180;2023-03-12T05:30:00;93814.53;;;2.99;62.64
21395;BME280;10858;42.714;23.180;2023-03-12T05:32:27;93825.50;;;3.91;60.08
21395;BME280;10858;42.714;23.180;2023-03-12T05:34:54;93828.09;;;5.53;55.71
21395;BME280;10858;42.714;23.180;2023-03-12T05:37:20;93831.06;;;6.26;53.25
21395;BME280;10858;42.714;23.180;2023-03-12T05:39:46;93837.72;;;7.05;51.05
21395;BME280;10858;42.714;23.180;2023-03-12T05:42:13;93839.53;;;7.25;50.07
21395;BME280;10858;42.714;23.180;2023-03-12T05:44:40;93834.63;;;7.41;49.45
21395;BME280;10858;42.714;23.180;2023-03-12T05:47:07;93842.28;;;7.03;49.73
21395;BME280;10858;42.714;23.180;2023-03-12T05:49:34;93843.91;;;7.35;48.91
21395;BME280;10858;42.714;23.180;2023-03-12T05:52:00;93850.72;;;7.89;47.68
21395;BME280;10858;42.714;23.180;2023-03-12T05:54:26;93856.66;;;8.61;45.96
21395;BME280;10858;42.714;23.180;2023-03-12T05:56:54;93860.19;;;8.90;43.72
21395;BME280;10858;42.714;23.180;2023-03-12T05:59:21;93862.53;;;7.94;44.79
21395;BME280;10858;42.714;23.180;2023-03-12T06:01:47;93869.25;;;8.97;43.90
21395;BME280;10858;42.714;23.180;2023-03-12T06:04:13;93873.44;;;8.40;43.50
21395;BME280;10858;42.714;23.180;2023-03-12T06:06:40;93877.44;;;8.84;42.80
21395;BME280;10858;42.714;23.180;2023-03-12T06:09:06;93879.41;;;9.49;41.94
21395;BME280;10858;42.714;23.180;2023-03-12T06:11:33;93867.38;;;11.54;37.08
21395;BME280;10858;42.714;23.180;2023-03-12T06:14:00;93867.59;;;11.43;39.90
21395;BME280;10858;42.714;23.180;2023-03-12T06:16:27;93874.25;;;12.34;36.60
21395;BME280;10858;42.714;23.180;2023-03-12T06:18:56;93877.66;;;11.92;37.27
21395;BME280;10858;42.714;23.180;2023-03-12T06:21:25;93888.09;;;10.98;37.40
21395;BME280;10858;42.714;23.180;2023-03-12T06:23:52;93901.16;;;9.43;40.86
21395;BME280;10858;42.714;23.180;2023-03-12T06:26:20;93902.31;;;10.97;37.58
21395;BME280;10858;42.714;23.180;2023-03-12T06:28:47;93899.06;;;11.03;39.30
21395;BME280;10858;42.714;23.180;2023-03-12T06:31:15;93905.63;;;11.44;37.79
21395;BME280;10858;42.714;23.180;2023-03-12T06:33:42;93905.91;;;12.45;36.67
21395;BME280;10858;42.714;23.180;2023-03-12T06:36:09;93908.09;;;11.98;35.40
21395;BME280;10858;42.714;23.180;2023-03-12T06:38:36;93913.03;;;10.04;39.26
21395;BME280;10858;42.714;23.180;2023-03-12T06:41:14;93922.50;;;10.16;38.03
21395;BME280;10858;42.714;23.180;2023-03-12T06:43:41;93930.53;;;10.44;38.03
21395;BME280;10858;42.714;23.180;2023-03-12T06:46:15;93942.63;;;10.46;39.08
21395;BME280;10858;42.714;23.180;2023-03-12T06:48:42;93954.47;;;8.61;39.58
21395;BME280;10858;42.714;23.180;2023-03-12T06:51:10;93951.00;;;9.38;39.16
21395;BME280;10858;42.714;23.180;2023-03-12T06:53:37;93939.97;;;10.56;36.88
21395;BME280;10858;42.714;23.180;2023-03-12T06:56:04;93950.75;;;8.73;38.37
21395;BME280;10858;42.714;23.180;2023-03-12T06:58:31;93945.25;;;8.85;38.87
21395;BME280;10858;42.714;23.180;2023-03-12T07:00:58;93953.94;;;8.67;38.78
21395;BME280;10858;42.714;23.180;2023-03-12T07:03:24;93958.13;;;8.60;38.01
21395;BME280;10858;42.714;23.180;2023-03-12T07:05:51;93949.91;;;8.63;41.20
21395;BME280;10858;42.714;23.180;2023-03-12T07:08:18;93951.25;;;9.92;37.19
21395;BME280;10858;42.714;23.180;2023-03-12T07:10:44;93956.97;;;10.26;36.80
21395;BME280;10858;42.714;23.180;2023-03-12T07:13:11;93960.72;;;11.42;36.59
21395;BME280;10858;42.714;23.180;2023-03-12T07:15:37;93965.25;;;11.32;35.18
21395;BME280;10858;42.714;23.180;2023-03-12T07:18:08;93969.25;;;10.54;36.97
21395;BME280;10858;42.714;23.180;2023-03-12T07:20:40;93970.44;;;10.79;35.55
21395;BME280;10858;42.714;23.180;2023-03-12T07:23:07;93971.41;;;11.32;34.84
21395;BME280;10858;42.714;23.180;2023-03-12T07:25:39;93972.47;;;11.39;36.99
21395;BME280;10858;42.714;23.180;2023-03-12T07:28:07;93975.78;;;10.96;35.68
21395;BME280;10858;42.714;23.180;2023-03-12T07:30:34;93978.41;;;12.04;36.90
21395;BME280;10858;42.714;23.180;2023-03-12T07:33:08;93984.41;;;12.74;33.85
21395;BME280;10858;42.714;23.180;2023-03-12T07:35:35;93990.50;;;11.98;34.14
21395;BME280;10858;42.714;23.180;2023-03-12T07:38:01;93985.84;;;10.66;34.55
21395;BME280;10858;42.714;23.180;2023-03-12T07:40:28;93982.63;;;10.62;35.38
21395;BME280;10858;42.714;23.180;2023-03-12T07:42:54;93993.41;;;9.86;36.58
21395;BME280;10858;42.714;23.180;2023-03-12T07:45:20;93992.78;;;9.15;35.89
21395;BME280;10858;42.714;23.180;2023-03-12T07:47:47;93996.19;;;9.65;35.66
21395;BME280;10858;42.714;23.180;2023-03-12T07:50:14;93994.22;;;8.80;38.07
21395;BME280;10858;42.714;23.180;2023-03-12T07:52:41;93985.81;;;9.24;37.24
21395;BME280;10858;42.714;23.180;2023-03-12T07:55:08;93994.13;;;9.00;37.54
21395;BME280;10858;42.714;23.180;2023-03-12T07:57:34;94016.22;;;9.58;36.40
21395;BME280;10858;42.714;23.180;2023-03-12T08:00:01;94002.00;;;9.30;36.40
21395;BME280;10858;42.714;23.180;2023-03-12T08:02:30;94001.94;;;10.55;37.79
21395;BME280;10858;42.714;23.180;2023-03-12T08:04:56;93999.13;;;10.66;38.31
21395;BME280;10858;42.714;23.180;2023-03-12T08:07:22;94012.63;;;9.78;37.33
21395;BME280;10858;42.714;23.180;2023-03-12T08:09:49;93999.97;;;10.57;36.42
21395;BME280;10858;42.714;23.180;2023-03-12T08:12:15;93997.16;;;10.68;35.74
21395;BME280;10858;42.714;23.180;2023-03-12T08:14:41;93999.13;;;10.56;36.92
21395;BME280;10858;42.714;23.180;2023-03-12T08:17:07;94006.34;;;9.98;38.20
21395;BME280;10858;42.714;23.180;2023-03-12T08:19:34;94004.53;;;10.27;35.50
21395;BME280;10858;42.714;23.180;2023-03-12T08:22:00;94009.44;;;9.94;36.81
21395;BME280;10858;42.714;23.180;2023-03-12T08:24:26;94013.13;;;11.12;35.04
21395;BME280;10858;42.714;23.180;2023-03-12T08:26:52;94024.84;;;10.56;35.86
21395;BME280;10858;42.714;23.180;2023-03-12T08:29:19;94022.47;;;10.43;34.40
21395;BME280;10858;42.714;23.180;2023-03-12T08:31:45;94018.06;;;10.71;36.82
21395;BME280;10858;42.714;23.180;2023-03-12T08:34:11;94029.50;;;9.77;36.60
21395;BME280;10858;42.714;23.180;2023-03-12T08:36:38;94030.03;;;10.28;35.48
21395;BME280;10858;42.714;23.180;2023-03-12T08:39:04;94025.63;;;9.13;36.84
21395;BME280;10858;42.714;23.180;2023-03-12T08:41:31;94020.41;;;8.52;37.97
21395;BME280;10858;42.714;23.180;2023-03-12T08:43:57;94033.34;;;8.25;38.83
21395;BME280;10858;42.714;23.180;2023-03-12T08:46:24;94041.47;;;8.64;40.55
21395;BME280;10858;42.714;23.180;2023-03-12T08:48:50;94024.28;;;8.48;39.56
21395;BME280;10858;42.714;23.180;2023-03-12T08:51:16;94040.50;;;9.73;41.22
21395;BME280;10858;42.714;23.180;2023-03-12T08:53:42;94032.81;;;8.92;38.51
21395;BME280;10858;42.714;23.180;2023-03-12T08:56:10;94030.78;;;8.75;37.47
21395;BME280;10858;42.714;23.180;2023-03-12T08:58:36;94035.94;;;8.46;38.16
21395;BME280;10858;42.714;23.180;2023-03-12T09:01:11;94042.25;;;8.54;37.92
21395;BME280;10858;42.714;23.180;2023-03-12T09:03:37;94032.41;;;9.55;39.61
21395;BME280;10858;42.714;23.180;2023-03-12T09:06:15;94036.59;;;8.99;38.13
21395;BME280;10858;42.714;23.180;2023-03-12T09:08:43;94039.56;;;9.15;38.58
21395;BME280;10858;42.714;23.180;2023-03-12T09:11:11;94024.88;;;9.41;38.57
21395;BME280;10858;42.714;23.180;2023-03-12T09:13:38;94034.38;;;10.10;38.23
21395;BME280;10858;42.714;23.180;2023-03-12T09:16:05;94018.22;;;9.75;38.88
21395;BME280;10858;42.714;23.180;2023-03-12T09:18:32;94029.09;;;10.10;36.99
21395;BME280;10858;42.714;23.180;2023-03-12T09:20:58;94034.19;;;9.45;38.30
21395;BME280;10858;42.714;23.180;2023-03-12T09:23:26;94032.59;;;8.74;38.93
21395;BME280;10858;42.714;23.180;2023-03-12T09:25:53;94035.19;;;8.65;37.30
21395;BME280;10858;42.714;23.180;2023-03-12T09:28:20;94039.03;;;8.51;38.99
21395;BME280;10858;42.714;23.180;2023-03-12T09:30:46;94032.34;;;8.47;39.00
21395;BME280;10858;42.714;23.180;2023-03-12T09:33:13;94031.13;;;8.91;38.37
21395;BME280;10858;42.714;23.180;2023-03-12T09:35:43;94018.38;;;8.66;38.75
21395;BME280;10858;42.714;23.180;2023-03-12T09:38:13;94035.91;;;9.06;38.85
21395;BME280;10858;42.714;23.180;2023-03-12T09:40:45;94039.66;;;9.72;36.53
21395;BME280;10858;42.714;23.180;2023-03-12T09:43:26;94031.84;;;9.61;40.05
21395;BME280;10858;42.714;23.180;2023-03-12T09:45:53;94028.75;;;10.42;37.33
21395;BME280;10858;42.714;23.180;2023-03-12T09:48:30;94034.19;;;10.60;35.91
21395;BME280;10858;42.714;23.180;2023-03-12T09:51:00;94032.81;;;10.83;36.52
21395;BME280;10858;42.714;23.180;2023-03-12T09:56:00;94035.41;;;11.29;36.87
21395;BME280;10858;42.714;23.180;2023-03-12T09:58:31;94031.19;;;10.72;35.86
21395;BME280;10858;42.714;23.180;2023-03-12T10:01:16;94029.44;;;10.90;33.51
21395;BME280;10858;42.714;23.180;2023-03-12T10:06:17;94017.47;;;10.31;37.18
21395;BME280;10858;42.714;23.180;2023-03-12T10:09:57;94037.75;;;10.78;35.91
21395;BME280;10858;42.714;23.180;2023-03-12T10:12:02;94020.03;;;10.69;32.64
21395;BME280;10858;42.714;23.180;2023-03-12T10:23:08;94026.16;;;12.48;32.23
21395;BME280;10858;42.714;23.180;2023-03-12T10:28:24;94032.00;;;10.07;34.77
21395;BME280;10858;42.714;23.180;2023-03-12T10:30:56;94041.91;;;9.58;34.81
21395;BME280;10858;42.714;23.180;2023-03-12T10:33:53;94051.00;;;9.15;36.02
21395;BME280;10858;42.714;23.180;2023-03-12T10:36:23;94046.75;;;9.43;36.32
21395;BME280;10858;42.714;23.180;2023-03-12T10:38:50;94031.75;;;10.76;35.57
21395;BME280;10858;42.714;23.180;2023-03-12T10:41:21;94036.31;;;12.10;33.31
21395;BME280;10858;42.714;23.180;2023-03-12T10:43:48;94032.31;;;11.78;32.09
21395;BME280;10858;42.714;23.180;2023-03-12T10:52:04;94027.16;;;12.30;34.81
21395;BME280;10858;42.714;23.180;2023-03-12T10:54:33;94023.97;;;13.03;34.37
21395;BME280;10858;42.714;23.180;2023-03-12T10:57:01;94019.59;;;12.43;30.97
21395;BME280;10858;42.714;23.180;2023-03-12T10:59:32;94022.53;;;13.42;31.99
21395;BME280;10858;42.714;23.180;2023-03-12T11:01:59;94024.72;;;12.19;30.13
21395;BME280;10858;42.714;23.180;2023-03-12T11:04:29;94008.16;;;13.02;33.02
21395;BME280;10858;42.714;23.180;2023-03-12T11:09:36;94015.72;;;13.48;29.48
21395;BME280;10858;42.714;23.180;2023-03-12T11:12:09;94018.16;;;11.70;33.44
21395;BME280;10858;42.714;23.180;2023-03-12T11:14:47;94018.75;;;11.37;34.46
21395;BME280;10858;42.714;23.180;2023-03-12T11:17:23;94003.50;;;10.84;34.63
21395;BME280;10858;42.714;23.180;2023-03-12T11:19:50;93999.59;;;10.52;33.16
21395;BME280;10858;42.714;23.180;2023-03-12T11:22:31;94006.56;;;10.89;34.39
21395;BME280;10858;42.714;23.180;2023-03-12T11:25:00;94006.22;;;11.47;33.76
21395;BME280;10858;42.714;23.180;2023-03-12T11:27:35;94003.34;;;11.67;34.54
21395;BME280;10858;42.714;23.180;2023-03-12T11:30:06;93988.88;;;11.52;34.06
21395;BME280;10858;42.714;23.180;2023-03-12T11:32:42;93991.66;;;11.33;34.03
21395;BME280;10858;42.714;23.180;2023-03-12T11:35:12;94003.31;;;12.03;33.41
21395;BME280;10858;42.714;23.180;2023-03-12T11:57:55;93993.16;;;13.18;28.58
21395;BME280;10858;42.714;23.180;2023-03-12T12:00:40;93987.88;;;14.24;29.15
21395;BME280;10858;42.714;23.180;2023-03-12T12:09:31;93989.69;;;14.80;30.10
21395;BME280;10858;42.714;23.180;2023-03-12T12:17:46;94000.84;;;16.31;26.70
21395;BME280;10858;42.714;23.180;2023-03-12T12:28:40;94004.09;;;11.95;34.70
21395;BME280;10858;42.714;23.180;2023-03-12T12:36:37;93994.16;;;16.57;25.76
21395;BME280;10858;42.714;23.180;2023-03-12T12:39:28;93996.38;;;15.70;28.85
21395;BME280;10858;42.714;23.180;2023-03-12T12:42:05;94004.69;;;14.25;30.00
21395;BME280;10858;42.714;23.180;2023-03-12T12:44:50;94005.53;;;13.35;29.84
21395;BME280;10858;42.714;23.180;2023-03-12T12:47:21;94005.38;;;12.77;31.11
21395;BME280;10858;42.714;23.180;2023-03-12T12:49:55;93994.00;;;13.01;32.08
21395;BME280;10858;42.714;23.180;2023-03-12T12:52:25;93987.47;;;13.21;30.12
21395;BME280;10858;42.714;23.180;2023-03-12T12:55:08;93994.06;;;12.50;31.68
21395;BME280;10858;42.714;23.180;2023-03-12T12:58:07;93986.66;;;12.61;33.00
21395;BME280;10858;42.714;23.180;2023-03-12T13:00:49;93988.50;;;12.69;32.09
21395;BME280;10858;42.714;23.180;2023-03-12T13:03:22;93990.53;;;11.53;31.49
21395;BME280;10858;42.714;23.180;2023-03-12T13:05:54;93994.34;;;10.69;35.23
21395;BME280;10858;42.714;23.180;2023-03-12T13:13:46;93997.25;;;13.13;29.63
21395;BME280;10858;42.714;23.180;2023-03-12T13:16:28;93987.94;;;12.83;32.30
21395;BME280;10858;42.714;23.180;2023-03-12T13:19:23;93992.13;;;13.19;28.74
21395;BME280;10858;42.714;23.180;2023-03-12T13:22:23;93992.69;;;14.21;29.38
21395;BME280;10858;42.714;23.180;2023-03-12T13:30:53;94002.94;;;13.68;28.60
21395;BME280;10858;42.714;23.180;2023-03-12T13:33:43;94001.81;;;14.99;27.41
21395;BME280;10858;42.714;23.180;2023-03-12T13:36:25;94002.94;;;13.59;30.18
21395;BME280;10858;42.714;23.180;2023-03-12T13:41:40;94009.44;;;11.50;32.27
21395;BME280;10858;42.714;23.180;2023-03-12T13:47:27;94013.41;;;13.11;31.19
21395;BME280;10858;42.714;23.180;2023-03-12T13:50:09;94019.16;;;13.82;29.05
21395;BME280;10858;42.714;23.180;2023-03-12T13:56:11;94018.41;;;14.54;26.95
21395;BME280;10858;42.714;23.180;2023-03-12T14:01:45;94021.38;;;15.85;24.42
21395;BME280;10858;42.714;23.180;2023-03-12T14:04:36;94010.91;;;17.55;22.85
21395;BME280;10858;42.714;23.180;2023-03-12T14:07:39;94018.34;;;17.01;24.78
21395;BME280;10858;42.714;23.180;2023-03-12T14:16:05;94027.00;;;13.92;28.32
21395;BME280;10858;42.714;23.180;2023-03-12T14:18:37;94028.13;;;12.98;30.88
21395;BME280;10858;42.714;23.180;2023-03-12T14:21:12;94027.41;;;13.13;29.87
21395;BME280;10858;42.714;23.180;2023-03-12T14:23:54;94023.63;;;12.47;29.87
21395;BME280;10858;42.714;23.180;2023-03-12T14:26:32;94029.47;;;13.27;29.72
21395;BME280;10858;42.714;23.180;2023-03-12T14:29:18;94031.88;;;14.12;28.74
21395;BME280;10858;42.714;23.180;2023-03-12T14:31:46;94034.28;;;13.74;29.45
21395;BME280;10858;42.714;23.180;2023-03-12T14:34:25;94034.97;;;13.76;29.66
21395;BME280;10858;42.714;23.180;2023-03-12T14:36:57;94036.03;;;14.07;28.31
21395;BME280;10858;42.714;23.180;2023-03-12T14:39:49;94038.28;;;15.47;26.72
21395;BME280;10858;42.714;23.180;2023-03-12T14:42:27;94052.47;;;13.78;28.53
21395;BME280;10858;42.714;23.180;2023-03-12T14:45:00;94040.88;;;13.12;29.37
21395;BME280;10858;42.714;23.180;2023-03-12T14:47:28;94038.69;;;13.07;29.91
21395;BME280;10858;42.714;23.180;2023-03-12T14:49:56;94044.84;;;12.39;30.70
21395;BME280;10858;42.714;23.180;2023-03-12T14:52:27;94050.00;;;13.43;28.59
21395;BME280;10858;42.714;23.180;2023-03-12T14:55:06;94045.34;;;13.11;29.18
21395;BME280;10858;42.714;23.180;2023-03-12T14:57:33;94050.44;;;13.72;28.76
21395;BME280;10858;42.714;23.180;2023-03-12T15:00:00;94054.34;;;13.44;27.93